createdAt,value
2023-03-21T00:00:05.921Z,10.65
2023-03-21T00:01:03.940Z,10.67
2023-03-21T00:02:03.978Z,10.69
2023-03-21T00:03:03.879Z,10.73
2023-03-21T00:04:03.954Z,10.70
2023-03-21T00:05:15.120Z,10.72
2023-03-21T00:06:03.847Z,10.73
2023-03-21T00:07:03.829Z,10.73
2023-03-21T00:08:03.815Z,10.73
2023-03-21T00:09:03.817Z,10.72
2023-03-21T00:10:12.768Z,10.73
2023-03-21T00:11:03.779Z,10.69
2023-03-21T00:12:03.763Z,10.67
2023-03-21T00:13:03.790Z,10.70
2023-03-21T00:14:03.737Z,10.67
2023-03-21T00:15:03.725Z,10.65
2023-03-21T00:16:05.636Z,10.62
2023-03-21T00:17:03.737Z,10.62
2023-03-21T00:18:03.688Z,10.63
2023-03-21T00:19:03.671Z,10.63
2023-03-21T00:20:03.659Z,10.66
2023-03-21T00:21:35.510Z,10.65
2023-03-21T00:22:08.157Z,10.72
2023-03-21T00:23:03.624Z,10.78
2023-03-21T00:24:03.614Z,10.73
2023-03-21T00:25:03.610Z,10.72
2023-03-21T00:26:03.589Z,10.75
2023-03-21T00:27:26.890Z,10.75
2023-03-21T00:28:08.284Z,10.69
2023-03-21T00:29:03.549Z,10.65
2023-03-21T00:30:03.530Z,10.65
2023-03-21T00:31:03.521Z,10.67
2023-03-21T00:32:03.505Z,10.65
2023-03-21T00:33:08.968Z,10.62
2023-03-21T00:34:05.478Z,10.65
2023-03-21T00:35:29.592Z,10.62
2023-03-21T00:36:05.771Z,10.65
2023-03-21T00:37:03.445Z,10.62
2023-03-21T00:38:03.430Z,10.54
2023-03-21T00:39:03.428Z,10.52
2023-03-21T00:40:03.440Z,10.47
2023-03-21T00:41:11.013Z,10.47
2023-03-21T00:42:03.381Z,10.42
2023-03-21T00:43:03.367Z,10.42
2023-03-21T00:44:03.357Z,10.38
2023-03-21T00:45:03.343Z,10.40
2023-03-21T00:46:03.343Z,10.44
2023-03-21T00:47:07.608Z,10.44
2023-03-21T00:48:03.422Z,10.42
2023-03-21T00:49:03.314Z,10.40
2023-03-21T00:50:03.276Z,10.45
2023-03-21T00:51:03.268Z,10.50
2023-03-21T00:52:15.203Z,10.52
2023-03-21T00:53:05.240Z,10.54
2023-03-21T00:54:03.225Z,10.54
2023-03-21T00:55:03.212Z,10.50
2023-03-21T00:56:03.200Z,10.55
2023-03-21T00:57:03.200Z,10.55
2023-03-21T00:58:03.175Z,10.52
2023-03-21T00:59:03.176Z,10.50
2023-03-21T01:00:03.159Z,10.45
2023-03-21T01:01:03.164Z,10.40
2023-03-21T01:02:03.192Z,10.38
2023-03-21T01:03:14.252Z,10.40
2023-03-21T01:04:03.101Z,10.32
2023-03-21T01:05:03.133Z,10.38
2023-03-21T01:06:03.076Z,10.38
2023-03-21T01:07:03.081Z,10.38
2023-03-21T01:08:08.113Z,10.41
2023-03-21T01:09:03.036Z,10.33
2023-03-21T01:10:03.054Z,10.38
2023-03-21T01:11:03.022Z,10.22
2023-03-21T01:12:03.003Z,10.26
2023-03-21T01:13:02.984Z,10.33
2023-03-21T01:14:18.628Z,10.32
2023-03-21T01:15:02.959Z,10.34
2023-03-21T01:16:02.960Z,10.32
2023-03-21T01:17:02.933Z,10.29
2023-03-21T01:18:02.941Z,10.27
2023-03-21T01:19:05.191Z,10.26
2023-03-21T01:20:02.895Z,10.29
2023-03-21T01:21:02.906Z,10.22
2023-03-21T01:22:02.875Z,10.23
2023-03-21T01:23:02.856Z,10.29
2023-03-21T01:24:02.849Z,10.32
2023-03-21T01:25:19.156Z,10.38
2023-03-21T01:26:02.821Z,10.38
2023-03-21T01:27:02.806Z,10.36
2023-03-21T01:28:02.804Z,10.40
2023-03-21T01:29:02.780Z,10.42
2023-03-21T01:30:06.285Z,10.44
2023-03-21T01:31:02.758Z,10.40
2023-03-21T01:32:02.759Z,10.38
2023-03-21T01:33:02.738Z,10.34
2023-03-21T01:34:02.721Z,10.36
2023-03-21T01:35:02.711Z,10.38
2023-03-21T01:36:12.257Z,10.33
2023-03-21T01:37:02.760Z,10.32
2023-03-21T01:38:02.661Z,10.38
2023-03-21T01:39:02.661Z,10.36
2023-03-21T01:40:02.644Z,10.33
2023-03-21T01:41:08.575Z,10.27
2023-03-21T01:42:04.616Z,10.23
2023-03-21T01:43:02.602Z,10.27
2023-03-21T01:44:02.585Z,10.25
2023-03-21T01:45:02.582Z,10.26
2023-03-21T01:46:02.630Z,10.20
2023-03-21T01:47:11.905Z,10.14
2023-03-21T01:48:04.573Z,10.22
2023-03-21T01:49:02.525Z,10.25
2023-03-21T01:50:02.518Z,10.26
2023-03-21T01:51:02.497Z,10.29
2023-03-21T01:52:11.463Z,10.33
2023-03-21T01:53:02.497Z,10.36
2023-03-21T01:54:02.458Z,10.44
2023-03-21T01:55:02.462Z,10.51
2023-03-21T01:56:02.433Z,10.58
2023-03-21T01:57:02.421Z,10.52
2023-03-21T01:58:07.278Z,10.50
2023-03-21T01:59:02.395Z,10.52
2023-03-21T02:00:02.383Z,10.54
2023-03-21T02:01:02.401Z,10.51
2023-03-21T02:02:02.359Z,10.48
2023-03-21T02:03:11.578Z,10.50
2023-03-21T02:04:04.373Z,10.50
2023-03-21T02:05:02.328Z,10.47
2023-03-21T02:06:02.306Z,10.48
2023-03-21T02:07:02.295Z,10.50
2023-03-21T02:08:02.286Z,10.54
2023-03-21T02:09:02.304Z,10.52
2023-03-21T02:10:02.271Z,10.52
2023-03-21T02:11:02.241Z,10.52
2023-03-21T02:12:02.232Z,10.52
2023-03-21T02:13:02.219Z,10.54
2023-03-21T02:14:06.705Z,10.51
2023-03-21T02:15:02.193Z,10.47
2023-03-21T02:16:02.177Z,10.48
2023-03-21T02:17:02.205Z,10.42
2023-03-21T02:18:02.151Z,10.40
2023-03-21T02:19:02.143Z,10.38
2023-03-21T02:20:02.125Z,10.34
2023-03-21T02:21:02.112Z,10.34
2023-03-21T02:22:02.111Z,10.33
2023-03-21T02:23:02.101Z,10.38
2023-03-21T02:24:02.074Z,10.33
2023-03-21T02:25:08.204Z,10.33
2023-03-21T02:26:04.048Z,10.33
2023-03-21T02:27:04.347Z,10.40
2023-03-21T02:28:02.029Z,10.42
2023-03-21T02:29:02.018Z,10.48
2023-03-21T02:30:02.019Z,10.51
2023-03-21T02:31:02.092Z,10.58
2023-03-21T02:32:15.120Z,10.58
2023-03-21T02:33:01.963Z,10.60
2023-03-21T02:34:01.953Z,10.63
2023-03-21T02:35:01.943Z,10.67
2023-03-21T02:36:11.966Z,10.73
2023-03-21T02:37:01.913Z,10.80
2023-03-21T02:38:01.898Z,10.85
2023-03-21T02:39:01.893Z,10.90
2023-03-21T02:40:01.873Z,10.87
2023-03-21T02:41:03.537Z,10.75
2023-03-21T02:42:01.848Z,10.52
2023-03-21T02:43:01.835Z,10.42
2023-03-21T02:44:01.825Z,10.34
2023-03-21T02:45:01.816Z,10.25
2023-03-21T02:46:01.865Z,10.27
2023-03-21T02:47:06.675Z,10.32
2023-03-21T02:48:01.845Z,10.27
2023-03-21T02:49:01.863Z,10.29
2023-03-21T02:50:01.748Z,10.32
2023-03-21T02:51:01.735Z,10.36
2023-03-21T02:52:12.203Z,10.36
2023-03-21T02:53:01.708Z,10.38
2023-03-21T02:54:30.253Z,10.33
2023-03-21T02:55:03.695Z,10.34
2023-03-21T02:56:01.688Z,10.38
2023-03-21T02:57:01.706Z,10.45
2023-03-21T02:58:12.438Z,10.51
2023-03-21T02:59:03.634Z,10.54
2023-03-21T03:00:10.701Z,10.55
2023-03-21T03:01:01.610Z,10.54
2023-03-21T03:02:01.591Z,10.54
2023-03-21T03:03:09.594Z,10.52
2023-03-21T03:04:03.592Z,10.50
2023-03-21T03:05:06.462Z,10.51
2023-03-21T03:06:01.544Z,10.50
2023-03-21T03:07:01.539Z,10.52
2023-03-21T03:08:01.516Z,10.52
2023-03-21T03:09:02.928Z,10.58
2023-03-21T03:10:01.494Z,10.59
2023-03-21T03:11:01.482Z,10.63
2023-03-21T03:12:01.466Z,10.59
2023-03-21T03:13:01.480Z,10.63
2023-03-21T03:14:15.590Z,10.63
2023-03-21T03:15:04.377Z,10.67
2023-03-21T03:16:01.480Z,10.69
2023-03-21T03:17:01.435Z,10.77
2023-03-21T03:18:01.389Z,10.78
2023-03-21T03:19:01.389Z,10.75
2023-03-21T03:20:07.147Z,10.67
2023-03-21T03:21:01.357Z,10.60
2023-03-21T03:22:01.340Z,10.55
2023-03-21T03:23:01.328Z,10.55
2023-03-21T03:24:01.321Z,10.45
2023-03-21T03:25:12.604Z,10.42
2023-03-21T03:26:01.285Z,10.41
2023-03-21T03:27:01.274Z,10.38
2023-03-21T03:28:01.259Z,10.33
2023-03-21T03:29:01.270Z,10.29
2023-03-21T03:30:01.232Z,10.26
2023-03-21T03:31:09.288Z,10.27
2023-03-21T03:32:01.247Z,10.23
2023-03-21T03:33:01.194Z,10.27
2023-03-21T03:34:01.181Z,10.34
2023-03-21T03:35:01.167Z,10.40
2023-03-21T03:36:06.820Z,10.40
2023-03-21T03:37:01.246Z,10.34
2023-03-21T03:38:01.136Z,10.38
2023-03-21T03:39:01.114Z,10.41
2023-03-21T03:40:01.100Z,10.42
2023-03-21T03:41:01.088Z,10.45
2023-03-21T03:42:12.721Z,10.50
2023-03-21T03:43:03.065Z,10.55
2023-03-21T03:44:01.065Z,10.62
2023-03-21T03:46:01.023Z,10.81
2023-03-21T03:47:01.024Z,10.88
2023-03-21T03:48:01.036Z,10.91
2023-03-21T03:49:00.995Z,10.91
2023-03-21T03:50:00.971Z,10.87
2023-03-21T03:51:00.962Z,10.87
2023-03-21T03:52:00.947Z,10.85
2023-03-21T03:53:04.815Z,10.84
2023-03-21T03:54:02.922Z,10.90
2023-03-21T03:55:00.915Z,10.87
2023-03-21T03:56:00.899Z,10.88
2023-03-21T03:57:00.891Z,10.87
2023-03-21T03:58:02.009Z,10.85
2023-03-21T03:59:00.868Z,10.83
2023-03-21T04:00:00.845Z,10.81
2023-03-21T04:01:00.873Z,10.88
2023-03-21T04:02:00.845Z,10.90
2023-03-21T04:03:00.950Z,10.95
2023-03-21T04:04:12.158Z,11.03
2023-03-21T04:05:02.809Z,11.13
2023-03-21T04:06:00.783Z,11.06
2023-03-21T04:07:00.760Z,11.08
2023-03-21T04:08:00.748Z,11.10
2023-03-21T04:09:03.498Z,11.14
2023-03-21T04:10:00.736Z,11.05
2023-03-21T04:11:00.717Z,11.08
2023-03-21T04:12:00.696Z,11.05
2023-03-21T04:13:00.684Z,11.02
2023-03-21T04:14:00.670Z,10.95
2023-03-21T04:15:11.105Z,10.84
2023-03-21T04:16:02.700Z,10.77
2023-03-21T04:17:00.634Z,10.63
2023-03-21T04:18:00.620Z,10.44
2023-03-21T04:19:00.609Z,10.36
2023-03-21T04:20:10.944Z,10.33
2023-03-21T04:21:00.601Z,10.36
2023-03-21T04:22:00.571Z,10.27
2023-03-21T04:23:00.558Z,10.29
2023-03-21T04:24:00.551Z,10.18
2023-03-21T04:25:00.725Z,10.05
2023-03-21T04:27:00.508Z,9.99
2023-03-21T04:28:00.512Z,9.97
2023-03-21T04:29:00.484Z,10.02
2023-03-21T04:30:00.471Z,9.96
2023-03-21T04:31:05.282Z,9.97
2023-03-21T04:32:02.564Z,9.94
2023-03-21T04:33:00.429Z,9.93
2023-03-21T04:34:00.419Z,9.90
2023-03-21T04:35:00.409Z,9.87
2023-03-21T04:36:00.440Z,9.86
2023-03-21T04:37:00.386Z,9.84
2023-03-21T04:38:00.371Z,9.77
2023-03-21T04:39:00.352Z,9.73
2023-03-21T04:40:00.339Z,9.79
2023-03-21T04:41:00.330Z,9.71
2023-03-21T04:42:00.313Z,9.67
2023-03-21T04:43:00.300Z,9.64
2023-03-21T04:44:00.292Z,9.55
2023-03-21T04:45:00.274Z,9.55
2023-03-21T04:46:00.352Z,9.52
2023-03-21T04:47:00.246Z,9.49
2023-03-21T04:48:00.314Z,9.41
2023-03-21T04:49:00.220Z,9.39
2023-03-21T04:50:00.214Z,9.39
2023-03-21T04:51:00.195Z,9.34
2023-03-21T04:52:00.192Z,9.32
2023-03-21T04:53:00.180Z,9.27
2023-03-21T04:54:00.171Z,9.19
2023-03-21T04:55:00.172Z,9.16
2023-03-21T04:56:00.134Z,9.07
2023-03-21T04:57:00.114Z,9.10
2023-03-21T04:58:00.111Z,9.12
2023-03-21T04:59:00.099Z,9.13
2023-03-21T05:00:00.109Z,9.02
2023-03-21T05:01:00.160Z,8.96
2023-03-21T05:02:00.055Z,8.92
2023-03-21T05:03:00.042Z,8.89
2023-03-21T05:04:00.111Z,8.80
2023-03-21T05:05:00.014Z,8.80
2023-03-21T05:05:59.999Z,8.77
2023-03-21T05:06:59.982Z,8.76
2023-03-21T05:07:59.974Z,8.76
2023-03-21T05:09:00.029Z,8.68
2023-03-21T05:10:02.246Z,8.63
2023-03-21T05:10:59.930Z,8.61
2023-03-21T05:11:59.926Z,8.56
2023-03-21T05:12:59.904Z,8.48
2023-03-21T05:13:59.910Z,8.48
2023-03-21T05:14:59.881Z,8.44
2023-03-21T05:15:59.866Z,8.38
2023-03-21T05:16:59.899Z,8.41
2023-03-21T05:17:59.840Z,8.41
2023-03-21T05:18:59.824Z,8.40
2023-03-21T05:19:59.862Z,8.37
2023-03-21T05:20:59.800Z,8.33
2023-03-21T05:21:59.793Z,8.29
2023-03-21T05:22:59.773Z,8.35
2023-03-21T05:23:59.761Z,8.33
2023-03-21T05:24:59.749Z,8.44
2023-03-21T05:25:59.745Z,8.52
2023-03-21T05:27:01.587Z,8.50
2023-03-21T05:27:59.708Z,8.47
2023-03-21T05:28:59.701Z,8.50
2023-03-21T05:29:59.682Z,8.55
2023-03-21T05:30:59.782Z,8.56
2023-03-21T05:31:59.669Z,8.55
2023-03-21T05:32:59.642Z,8.59
2023-03-21T05:33:59.636Z,8.61
2023-03-21T05:34:59.617Z,8.65
2023-03-21T05:35:59.675Z,8.66
2023-03-21T05:36:59.590Z,8.59
2023-03-21T05:37:59.579Z,8.63
2023-03-21T05:38:59.564Z,8.66
2023-03-21T05:39:59.558Z,8.74
2023-03-21T05:40:59.538Z,8.77
2023-03-21T05:41:59.539Z,8.81
2023-03-21T05:42:59.536Z,8.87
2023-03-21T05:43:59.500Z,8.91
2023-03-21T05:44:59.488Z,8.95
2023-03-21T05:45:59.521Z,9.02
2023-03-21T05:46:59.460Z,9.12
2023-03-21T05:47:59.480Z,9.23
2023-03-21T05:48:59.448Z,9.28
2023-03-21T05:49:59.423Z,9.38
2023-03-21T05:50:59.407Z,9.47
2023-03-21T05:51:59.420Z,9.50
2023-03-21T05:52:59.384Z,9.52
2023-03-21T05:53:59.371Z,9.59
2023-03-21T05:54:59.356Z,9.65
2023-03-21T05:55:59.344Z,9.64
2023-03-21T05:56:59.331Z,9.70
2023-03-21T05:57:59.323Z,9.74
2023-03-21T05:58:59.304Z,9.79
2023-03-21T05:59:59.294Z,9.84
2023-03-21T06:00:59.294Z,9.89
2023-03-21T06:01:59.273Z,9.91
2023-03-21T06:02:59.298Z,9.93
2023-03-21T06:03:59.302Z,9.99
2023-03-21T06:04:59.226Z,10.09
2023-03-21T06:05:59.216Z,10.22
2023-03-21T06:06:59.202Z,10.30
2023-03-21T06:07:59.226Z,10.42
2023-03-21T06:08:59.179Z,10.51
2023-03-21T06:09:59.164Z,10.59
2023-03-21T06:10:59.152Z,10.62
2023-03-21T06:11:59.140Z,10.72
2023-03-21T06:12:59.141Z,10.77
2023-03-21T06:13:59.114Z,10.75
2023-03-21T06:14:59.099Z,10.70
2023-03-21T06:15:59.175Z,10.69
2023-03-21T06:16:59.078Z,10.66
2023-03-21T06:17:59.064Z,10.63
2023-03-21T06:18:59.049Z,10.66
2023-03-21T06:19:59.034Z,10.60
2023-03-21T06:20:59.023Z,10.65
2023-03-21T06:21:59.009Z,10.70
2023-03-21T06:22:58.997Z,10.77
2023-03-21T06:23:59.009Z,10.83
2023-03-21T06:24:58.968Z,10.91
2023-03-21T06:25:58.958Z,11.05
2023-03-21T06:26:58.941Z,11.10
2023-03-21T06:27:58.928Z,11.14
2023-03-21T06:28:58.920Z,11.14
2023-03-21T06:29:58.904Z,11.09
2023-03-21T06:30:58.921Z,11.10
2023-03-21T06:31:58.874Z,11.13
2023-03-21T06:32:58.861Z,11.17
2023-03-21T06:33:58.846Z,11.18
2023-03-21T06:34:58.832Z,11.27
2023-03-21T06:35:58.904Z,11.32
2023-03-21T06:36:58.806Z,11.39
2023-03-21T06:37:58.799Z,11.46
2023-03-21T06:38:58.777Z,11.52
2023-03-21T06:39:58.880Z,11.69
2023-03-21T06:40:58.758Z,11.79
2023-03-21T06:41:58.737Z,11.93
2023-03-21T06:42:58.726Z,11.98
2023-03-21T06:43:58.715Z,12.06
2023-03-21T06:44:58.697Z,12.18
2023-03-21T06:45:58.691Z,12.15
2023-03-21T06:46:58.687Z,12.22
2023-03-21T06:47:58.685Z,12.23
2023-03-21T06:48:58.647Z,12.30
2023-03-21T06:49:58.636Z,12.36
2023-03-21T06:50:58.617Z,12.38
2023-03-21T06:51:58.623Z,12.40
2023-03-21T06:52:58.591Z,12.34
2023-03-21T06:53:58.584Z,12.36
2023-03-21T06:54:58.569Z,12.31
2023-03-21T06:55:58.576Z,12.37
2023-03-21T06:56:58.540Z,12.38
2023-03-21T06:57:58.537Z,12.38
2023-03-21T06:58:58.514Z,12.44
2023-03-21T06:59:58.506Z,12.48
2023-03-21T07:00:58.536Z,12.56
2023-03-21T07:01:58.487Z,12.58
2023-03-21T07:02:58.487Z,12.58
2023-03-21T07:03:58.454Z,12.56
2023-03-21T07:04:58.436Z,12.56
2023-03-21T07:05:58.430Z,12.59
2023-03-21T07:06:58.408Z,12.68
2023-03-21T07:07:58.400Z,12.72
2023-03-21T07:08:58.384Z,12.72
2023-03-21T07:09:58.371Z,12.65
2023-03-21T07:10:58.369Z,12.46
2023-03-21T07:11:58.369Z,12.51
2023-03-21T07:12:58.330Z,12.59
2023-03-21T07:13:58.320Z,12.68
2023-03-21T07:14:58.304Z,12.74
2023-03-21T07:15:58.296Z,12.89
2023-03-21T07:16:58.277Z,12.87
2023-03-21T07:17:58.265Z,12.79
2023-03-21T07:18:58.251Z,12.74
2023-03-21T07:19:58.239Z,12.82
2023-03-21T07:20:58.229Z,12.79
2023-03-21T07:21:58.217Z,12.78
2023-03-21T07:22:58.199Z,12.92
2023-03-21T07:23:58.190Z,13.05
2023-03-21T07:25:04.797Z,12.97
2023-03-21T07:26:00.241Z,12.75
2023-03-21T07:26:58.149Z,12.70
2023-03-21T07:27:58.157Z,12.75
2023-03-21T07:28:58.120Z,12.70
2023-03-21T07:29:58.112Z,12.67
2023-03-21T07:30:58.105Z,12.64
2023-03-21T07:31:58.185Z,12.38
2023-03-21T07:32:58.071Z,12.09
2023-03-21T07:33:58.055Z,12.15
2023-03-21T07:34:59.200Z,12.19
2023-03-21T07:35:58.102Z,12.22
2023-03-21T07:36:58.014Z,12.23
2023-03-21T07:37:58.002Z,12.18
2023-03-21T07:38:57.996Z,12.27
2023-03-21T07:39:57.978Z,12.16
2023-03-21T07:40:57.963Z,12.18
2023-03-21T07:41:57.953Z,12.04
2023-03-21T07:42:57.934Z,11.88
2023-03-21T07:43:57.951Z,11.54
2023-03-21T07:44:57.911Z,11.52
2023-03-21T07:45:57.977Z,11.58
2023-03-21T07:46:57.884Z,11.47
2023-03-21T07:47:57.948Z,11.65
2023-03-21T07:48:57.854Z,11.76
2023-03-21T07:49:57.843Z,11.88
2023-03-21T07:50:57.826Z,12.00
2023-03-21T07:51:57.819Z,12.15
2023-03-21T07:52:57.804Z,12.27
2023-03-21T07:53:57.788Z,12.45
2023-03-21T07:54:57.774Z,12.61
2023-03-21T07:55:57.763Z,12.79
2023-03-21T07:56:57.748Z,12.87
2023-03-21T07:57:57.734Z,12.82
2023-03-21T07:58:57.721Z,12.83
2023-03-21T07:59:57.738Z,12.78
2023-03-21T08:00:57.694Z,12.79
2023-03-21T08:01:57.721Z,12.85
2023-03-21T08:02:59.047Z,12.75
2023-03-21T08:03:57.656Z,12.75
2023-03-21T08:04:57.641Z,12.75
2023-03-21T08:05:57.633Z,12.71
2023-03-21T08:06:57.616Z,12.79
2023-03-21T08:07:57.600Z,12.93
2023-03-21T08:08:57.598Z,12.93
2023-03-21T08:09:57.578Z,12.96
2023-03-21T08:10:57.564Z,13.08
2023-03-21T08:11:57.550Z,13.23
2023-03-21T08:12:57.536Z,13.37
2023-03-21T08:13:57.529Z,13.44
2023-03-21T08:14:59.975Z,13.45
2023-03-21T08:15:57.545Z,13.56
2023-03-21T08:16:57.747Z,13.59
2023-03-21T08:17:57.475Z,13.58
2023-03-21T08:18:57.459Z,13.33
2023-03-21T08:19:57.447Z,13.14
2023-03-21T08:20:57.443Z,13.17
2023-03-21T08:21:57.423Z,13.29
2023-03-21T08:22:57.416Z,13.41
2023-03-21T08:23:57.396Z,13.33
2023-03-21T08:24:57.383Z,13.35
2023-03-21T08:25:57.382Z,13.15
2023-03-21T08:26:57.359Z,13.20
2023-03-21T08:27:57.351Z,13.32
2023-03-21T08:28:57.330Z,13.12
2023-03-21T08:29:57.320Z,13.11
2023-03-21T08:30:57.354Z,12.75
2023-03-21T08:31:57.320Z,12.68
2023-03-21T08:33:00.543Z,12.70
2023-03-21T08:33:57.266Z,12.85
2023-03-21T08:34:57.256Z,12.82
2023-03-21T08:35:57.289Z,12.56
2023-03-21T08:36:57.228Z,12.58
2023-03-21T08:37:57.222Z,12.75
2023-03-21T08:38:57.334Z,13.00
2023-03-21T08:39:57.214Z,13.20
2023-03-21T08:40:59.777Z,13.22
2023-03-21T08:41:57.164Z,13.12
2023-03-21T08:42:57.155Z,13.17
2023-03-21T08:43:57.138Z,13.25
2023-03-21T08:44:57.125Z,13.41
2023-03-21T08:45:57.220Z,13.19
2023-03-21T08:46:57.102Z,13.10
2023-03-21T08:47:57.199Z,13.20
2023-03-21T08:48:57.086Z,13.35
2023-03-21T08:49:59.117Z,13.51
2023-03-21T08:50:57.047Z,13.37
2023-03-21T08:51:57.037Z,13.43
2023-03-21T08:52:57.038Z,13.20
2023-03-21T08:53:57.017Z,12.97
2023-03-21T08:54:56.997Z,13.11
2023-03-21T08:55:56.992Z,13.20
2023-03-21T08:56:56.973Z,13.20
2023-03-21T08:57:56.964Z,13.23
2023-03-21T08:58:56.946Z,13.23
2023-03-21T08:59:56.931Z,13.38
2023-03-21T09:00:56.922Z,13.47
2023-03-21T09:01:56.953Z,13.51
2023-03-21T09:02:56.897Z,13.69
2023-03-21T09:03:56.906Z,13.81
2023-03-21T09:04:56.927Z,13.91
2023-03-21T09:05:56.857Z,14.02
2023-03-21T09:06:56.848Z,14.12
2023-03-21T09:07:56.828Z,14.22
2023-03-21T09:08:56.819Z,14.27
2023-03-21T09:10:15.098Z,14.28
2023-03-21T09:10:58.795Z,14.28
2023-03-21T09:11:56.780Z,14.36
2023-03-21T09:12:56.774Z,14.33
2023-03-21T09:13:56.753Z,14.36
2023-03-21T09:14:56.741Z,14.35
2023-03-21T09:15:56.802Z,14.29
2023-03-21T09:16:56.720Z,14.28
2023-03-21T09:17:56.700Z,14.27
2023-03-21T09:18:56.692Z,14.02
2023-03-21T09:19:56.713Z,13.91
2023-03-21T09:20:56.665Z,13.86
2023-03-21T09:21:56.658Z,13.70
2023-03-21T09:22:56.640Z,13.78
2023-03-21T09:23:56.622Z,13.80
2023-03-21T09:24:56.616Z,13.90
2023-03-21T09:25:56.646Z,13.65
2023-03-21T09:26:56.588Z,13.61
2023-03-21T09:27:56.590Z,13.61
2023-03-21T09:28:56.631Z,13.45
2023-03-21T09:29:56.547Z,13.33
2023-03-21T09:30:56.577Z,13.17
2023-03-21T09:31:56.523Z,12.97
2023-03-21T09:32:56.507Z,13.00
2023-03-21T09:33:56.494Z,13.10
2023-03-21T09:34:56.482Z,13.25
2023-03-21T09:35:56.524Z,13.38
2023-03-21T09:36:56.457Z,13.44
2023-03-21T09:37:56.438Z,13.48
2023-03-21T09:38:56.429Z,13.50
2023-03-21T09:39:56.413Z,13.43
2023-03-21T09:40:56.404Z,13.48
2023-03-21T09:41:56.395Z,13.45
2023-03-21T09:42:56.375Z,13.47
2023-03-21T09:43:56.569Z,13.50
2023-03-21T09:44:56.348Z,13.47
2023-03-21T09:45:56.332Z,13.30
2023-03-21T09:46:56.339Z,13.30
2023-03-21T09:47:56.386Z,13.29
2023-03-21T09:48:57.617Z,13.14
2023-03-21T09:50:01.760Z,13.26
2023-03-21T09:50:58.269Z,13.33
2023-03-21T09:51:56.279Z,13.45
2023-03-21T09:52:56.242Z,13.43
2023-03-21T09:53:57.186Z,13.45
2023-03-21T09:54:56.216Z,13.54
2023-03-21T09:55:56.203Z,13.35
2023-03-21T09:56:56.202Z,13.26
2023-03-21T09:57:56.176Z,13.14
2023-03-21T09:58:56.163Z,13.17
2023-03-21T09:59:56.157Z,13.29
2023-03-21T10:00:56.431Z,13.30
2023-03-21T10:01:56.124Z,13.45
2023-03-21T10:02:57.504Z,13.15
2023-03-21T10:03:56.095Z,13.14
2023-03-21T10:04:56.218Z,13.26
2023-03-21T10:05:56.069Z,13.43
2023-03-21T10:06:56.060Z,13.59
2023-03-21T10:07:56.080Z,13.65
2023-03-21T10:08:57.167Z,13.70
2023-03-21T10:09:56.014Z,13.77
2023-03-21T10:10:56.008Z,13.80
2023-03-21T10:11:55.989Z,13.83
2023-03-21T10:12:55.990Z,13.95
2023-03-21T10:13:55.962Z,13.91
2023-03-21T10:14:57.612Z,13.54
2023-03-21T10:15:55.936Z,13.17
2023-03-21T10:16:55.926Z,13.04
2023-03-21T10:17:55.910Z,13.19
2023-03-21T10:18:55.905Z,13.17
2023-03-21T10:19:55.886Z,13.03
2023-03-21T10:20:55.883Z,13.15
2023-03-21T10:22:04.317Z,13.00
2023-03-21T10:22:57.844Z,12.95
2023-03-21T10:23:55.853Z,12.92
2023-03-21T10:24:55.816Z,13.01
2023-03-21T10:25:55.859Z,12.97
2023-03-21T10:26:55.794Z,12.87
2023-03-21T10:27:55.777Z,12.48
2023-03-21T10:28:55.809Z,12.53
2023-03-21T10:29:55.748Z,12.74
2023-03-21T10:30:55.746Z,12.75
2023-03-21T10:31:55.886Z,12.65
2023-03-21T10:32:57.813Z,12.49
2023-03-21T10:33:55.696Z,12.58
2023-03-21T10:35:55.734Z,12.85
2023-03-21T10:36:55.656Z,12.92
2023-03-21T10:37:55.643Z,13.03
2023-03-21T10:38:55.632Z,12.87
2023-03-21T10:39:55.637Z,12.58
2023-03-21T10:40:55.604Z,12.59
2023-03-21T10:41:55.590Z,12.68
2023-03-21T10:42:55.578Z,12.65
2023-03-21T10:43:55.563Z,12.68
2023-03-21T10:44:55.551Z,12.61
2023-03-21T10:45:55.679Z,12.64
2023-03-21T10:46:56.041Z,12.77
2023-03-21T10:47:55.855Z,12.87
2023-03-21T10:48:55.584Z,12.61
2023-03-21T10:50:11.507Z,12.40
2023-03-21T10:50:57.542Z,12.34
2023-03-21T10:51:55.473Z,12.31
2023-03-21T10:52:55.445Z,12.19
2023-03-21T10:53:55.431Z,12.20
2023-03-21T10:54:55.424Z,12.12
2023-03-21T10:55:55.443Z,12.11
2023-03-21T10:56:55.397Z,12.19
2023-03-21T10:57:55.377Z,12.26
2023-03-21T10:58:55.366Z,12.13
2023-03-21T10:59:55.351Z,12.15
2023-03-21T11:00:55.388Z,12.20
2023-03-21T11:01:55.420Z,12.33
2023-03-21T11:02:55.314Z,12.34
2023-03-21T11:03:55.307Z,12.36
2023-03-21T11:04:55.294Z,12.49
2023-03-21T11:05:55.282Z,12.64
2023-03-21T11:06:55.318Z,12.78
2023-03-21T11:07:55.251Z,12.89
2023-03-21T11:08:55.234Z,13.00
2023-03-21T11:09:55.220Z,13.04
2023-03-21T11:10:55.223Z,12.92
2023-03-21T11:11:55.217Z,13.01
2023-03-21T11:12:55.183Z,12.93
2023-03-21T11:13:55.175Z,13.00
2023-03-21T11:14:55.159Z,12.77
2023-03-21T11:15:55.143Z,12.83
2023-03-21T11:16:55.258Z,12.93
2023-03-21T11:17:55.118Z,12.85
2023-03-21T11:18:55.106Z,12.52
2023-03-21T11:19:55.096Z,12.30
2023-03-21T11:20:55.199Z,12.48
2023-03-21T11:21:55.066Z,12.46
2023-03-21T11:22:55.061Z,12.33
2023-03-21T11:23:55.040Z,12.33
2023-03-21T11:24:55.029Z,12.30
2023-03-21T11:25:55.015Z,12.49
2023-03-21T11:26:55.001Z,12.48
2023-03-21T11:27:55.024Z,12.30
2023-03-21T11:28:54.977Z,12.26
2023-03-21T11:29:54.961Z,11.98
2023-03-21T11:30:55.002Z,11.91
2023-03-21T11:31:54.939Z,11.86
2023-03-21T11:32:54.923Z,11.60
2023-03-21T11:33:54.914Z,11.64
2023-03-21T11:34:54.901Z,11.62
2023-03-21T11:35:54.897Z,11.54
2023-03-21T11:36:54.872Z,11.75
2023-03-21T11:37:54.858Z,11.78
2023-03-21T11:38:54.846Z,11.73
2023-03-21T11:39:54.833Z,11.88
2023-03-21T11:40:54.819Z,11.90
2023-03-21T11:41:54.807Z,12.13
2023-03-21T11:42:54.803Z,12.31
2023-03-21T11:43:54.804Z,12.31
2023-03-21T11:44:54.768Z,12.26
2023-03-21T11:46:54.741Z,11.70
2023-03-21T11:47:54.792Z,11.94
2023-03-21T11:48:54.715Z,12.06
2023-03-21T11:50:04.200Z,11.94
2023-03-21T11:50:56.692Z,12.09
2023-03-21T11:51:54.678Z,12.06
2023-03-21T11:52:54.667Z,11.90
2023-03-21T11:53:54.652Z,11.85
2023-03-21T11:54:54.638Z,11.73
2023-03-21T11:55:54.621Z,11.57
2023-03-21T11:56:54.622Z,11.40
2023-03-21T11:57:54.871Z,11.51
2023-03-21T11:58:54.686Z,11.57
2023-03-21T11:59:54.595Z,11.72
2023-03-21T12:00:54.561Z,11.82
2023-03-21T12:01:54.540Z,11.91
2023-03-21T12:02:54.576Z,11.80
2023-03-21T12:03:55.094Z,11.72
2023-03-21T12:04:54.504Z,11.65
2023-03-21T12:05:54.494Z,11.75
2023-03-21T12:06:54.495Z,11.97
2023-03-21T12:07:54.461Z,12.06
2023-03-21T12:08:54.449Z,12.22
2023-03-21T12:09:54.436Z,12.23
2023-03-21T12:10:54.425Z,12.04
2023-03-21T12:11:54.411Z,12.13
2023-03-21T12:12:54.398Z,12.19
2023-03-21T12:13:54.385Z,12.12
2023-03-21T12:14:54.373Z,12.22
2023-03-21T12:15:55.600Z,12.40
2023-03-21T12:16:54.346Z,12.41
2023-03-21T12:17:54.335Z,12.44
2023-03-21T12:18:54.325Z,12.37
2023-03-21T12:19:54.306Z,12.23
2023-03-21T12:20:54.323Z,12.16
2023-03-21T12:21:54.998Z,12.18
2023-03-21T12:22:54.292Z,12.36
2023-03-21T12:23:54.252Z,12.41
2023-03-21T12:24:54.247Z,12.49
2023-03-21T12:25:54.224Z,12.52
2023-03-21T12:26:54.215Z,12.59
2023-03-21T12:27:54.204Z,12.59
2023-03-21T12:28:54.186Z,12.41
2023-03-21T12:29:54.187Z,12.46
2023-03-21T12:30:54.159Z,12.48
2023-03-21T12:31:54.373Z,12.52
2023-03-21T12:32:54.131Z,12.64
2023-03-21T12:33:54.117Z,12.52
2023-03-21T12:34:54.107Z,12.61
2023-03-21T12:35:54.185Z,12.68
2023-03-21T12:36:54.090Z,12.77
2023-03-21T12:37:55.547Z,12.61
2023-03-21T12:38:54.051Z,12.82
2023-03-21T12:39:54.039Z,12.56
2023-03-21T12:40:54.040Z,12.46
2023-03-21T12:41:54.012Z,12.33
2023-03-21T12:42:54.003Z,12.28
2023-03-21T12:43:55.345Z,12.44
2023-03-21T12:44:53.973Z,12.37
2023-03-21T12:45:53.957Z,12.30
2023-03-21T12:46:54.014Z,12.31
2023-03-21T12:47:54.111Z,12.36
2023-03-21T12:48:53.920Z,12.58
2023-03-21T12:49:55.225Z,12.45
2023-03-21T12:50:53.890Z,12.44
2023-03-21T12:51:53.891Z,12.38
2023-03-21T12:52:53.869Z,12.53
2023-03-21T12:53:53.852Z,12.33
2023-03-21T12:54:53.840Z,12.33
2023-03-21T12:55:53.825Z,12.53
2023-03-21T12:56:53.811Z,12.51
2023-03-21T12:57:57.614Z,12.41
2023-03-21T12:58:53.790Z,12.46